sensor_id;sensor_type;location;lat;lon;timestamp;pressure;altitude;pressure_sealevel;temperature;humidity
40940;BME280;26666;50.156;7.700;2023-04-03T00:01:38;101583.25;;;5.20;100.00
40940;BME280;26666;50.156;7.700;2023-04-03T00:06:41;101595.31;;;5.03;100.00
40940;BME280;26666;50.156;7.700;2023-04-03T00:11:43;101587.28;;;5.08;100.00
40940;BME280;26666;50.156;7.700;2023-04-03T00:16:44;101589.22;;;5.03;100.00
40940;BME280;26666;50.156;7.700;2023-04-03T00:21:47;101586.84;;;4.76;100.00
40940;BME280;26666;50.156;7.700;2023-04-03T00:26:49;101592.84;;;5.00;100.00
40940;BME280;26666;50.156;7.700;2023-04-03T00:31:51;101595.63;;;4.96;100.00
40940;BME280;26666;50.156;7.700;2023-04-03T00:36:54;101589.13;;;4.84;100.00
40940;BME280;26666;50.156;7.700;2023-04-03T00:41:56;101581.81;;;4.92;100.00
40940;BME280;26666;50.156;7.700;2023-04-03T00:46:57;101592.50;;;5.08;100.00
40940;BME280;26666;50.156;7.700;2023-04-03T00:52:01;101586.25;;;4.90;100.00
40940;BME280;26666;50.156;7.700;2023-04-03T00:57:03;101588.41;;;4.80;100.00
40940;BME280;26666;50.156;7.700;2023-04-03T01:02:06;101583.63;;;4.90;100.00
40940;BME280;26666;50.156;7.700;2023-04-03T01:07:11;101583.47;;;4.94;100.00
40940;BME280;26666;50.156;7.700;2023-04-03T01:12:15;101579.38;;;4.87;100.00
40940;BME280;26666;50.156;7.700;2023-04-03T01:17:28;101574.41;;;5.02;100.00
40940;BME280;26666;50.156;7.700;2023-04-03T01:22:33;101577.56;;;4.89;100.00
40940;BME280;26666;50.156;7.700;2023-04-03T01:27:43;101575.84;;;4.68;100.00
40940;BME280;26666;50.156;7.700;2023-04-03T01:32:46;101570.63;;;5.09;100.00
40940;BME280;26666;50.156;7.700;2023-04-03T01:37:48;101579.19;;;4.92;100.00
40940;BME280;26666;50.156;7.700;2023-04-03T01:42:49;101572.63;;;4.82;100.00
40940;BME280;26666;50.156;7.700;2023-04-03T01:47:53;101568.38;;;5.00;100.00
40940;BME280;26666;50.156;7.700;2023-04-03T01:52:56;101574.47;;;4.80;100.00
40940;BME280;26666;50.156;7.700;2023-04-03T01:57:58;101566.34;;;4.86;100.00
40940;BME280;26666;50.156;7.700;2023-04-03T02:03:01;101559.88;;;4.94;100.00
40940;BME280;26666;50.156;7.700;2023-04-03T02:08:03;101548.50;;;4.75;100.00
40940;BME280;26666;50.156;7.700;2023-04-03T02:13:05;101554.97;;;5.07;100.00
40940;BME280;26666;50.156;7.700;2023-04-03T02:18:08;101553.13;;;4.68;100.00
40940;BME280;26666;50.156;7.700;2023-04-03T02:23:10;101552.47;;;4.84;100.00
40940;BME280;26666;50.156;7.700;2023-04-03T02:28:12;101555.09;;;4.84;100.00
40940;BME280;26666;50.156;7.700;2023-04-03T02:33:15;101558.97;;;4.96;100.00
40940;BME280;26666;50.156;7.700;2023-04-03T02:38:16;101558.00;;;4.98;100.00
40940;BME280;26666;50.156;7.700;2023-04-03T02:43:18;101559.28;;;4.88;100.00
40940;BME280;26666;50.156;7.700;2023-04-03T02:48:21;101563.75;;;5.06;100.00
40940;BME280;26666;50.156;7.700;2023-04-03T02:53:23;101559.56;;;5.02;100.00
40940;BME280;26666;50.156;7.700;2023-04-03T02:58:25;101560.84;;;4.92;100.00
40940;BME280;26666;50.156;7.700;2023-04-03T03:03:28;101569.69;;;4.89;100.00
40940;BME280;26666;50.156;7.700;2023-04-03T03:08:30;101574.56;;;4.99;100.00
40940;BME280;26666;50.156;7.700;2023-04-03T03:13:31;101570.22;;;5.18;100.00
40940;BME280;26666;50.156;7.700;2023-04-03T03:18:35;101581.34;;;4.82;100.00
40940;BME280;26666;50.156;7.700;2023-04-03T03:23:37;101575.41;;;4.99;100.00
40940;BME280;26666;50.156;7.700;2023-04-03T03:28:39;101578.09;;;4.77;100.00
40940;BME280;26666;50.156;7.700;2023-04-03T03:33:42;101578.50;;;4.88;100.00
40940;BME280;26666;50.156;7.700;2023-04-03T03:38:47;101574.47;;;4.80;100.00
40940;BME280;26666;50.156;7.700;2023-04-03T03:43:48;101579.38;;;4.87;100.00
40940;BME280;26666;50.156;7.700;2023-04-03T03:48:51;101578.66;;;4.84;100.00
40940;BME280;26666;50.156;7.700;2023-04-03T03:53:53;101578.00;;;4.99;100.00
40940;BME280;26666;50.156;7.700;2023-04-03T03:58:55;101582.53;;;4.75;100.00
40940;BME280;26666;50.156;7.700;2023-04-03T04:03:58;101575.94;;;4.65;100.00
40940;BME280;26666;50.156;7.700;2023-04-03T04:09:00;101578.41;;;4.69;100.00
40940;BME280;26666;50.156;7.700;2023-04-03T04:14:01;101575.50;;;4.33;100.00
40940;BME280;26666;50.156;7.700;2023-04-03T04:19:04;101581.09;;;4.24;100.00
40940;BME280;26666;50.156;7.700;2023-04-03T04:24:09;101579.84;;;4.34;100.00
40940;BME280;26666;50.156;7.700;2023-04-03T04:29:11;101573.13;;;4.27;100.00
40940;BME280;26666;50.156;7.700;2023-04-03T04:34:14;101582.22;;;3.94;100.00
40940;BME280;26666;50.156;7.700;2023-04-03T04:39:16;101581.84;;;3.82;100.00
40940;BME280;26666;50.156;7.700;2023-04-03T04:44:18;101580.75;;;3.64;100.00
40940;BME280;26666;50.156;7.700;2023-04-03T04:49:21;101583.03;;;3.73;100.00
40940;BME280;26666;50.156;7.700;2023-04-03T04:54:22;101586.56;;;3.95;100.00
40940;BME280;26666;50.156;7.700;2023-04-03T04:59:24;101596.94;;;3.50;100.00
40940;BME280;26666;50.156;7.700;2023-04-03T05:04:27;101610.13;;;3.47;100.00
40940;BME280;26666;50.156;7.700;2023-04-03T05:09:29;101610.13;;;3.47;100.00
40940;BME280;26666;50.156;7.700;2023-04-03T05:14:31;101622.50;;;3.42;100.00
40940;BME280;26666;50.156;7.700;2023-04-03T05:19:34;101619.06;;;3.65;100.00
40940;BME280;26666;50.156;7.700;2023-04-03T05:24:35;101625.84;;;3.45;100.00
40940;BME280;26666;50.156;7.700;2023-04-03T05:29:37;101626.16;;;3.61;100.00
40940;BME280;26666;50.156;7.700;2023-04-03T05:34:40;101623.78;;;3.55;100.00
40940;BME280;26666;50.156;7.700;2023-04-03T05:39:42;101620.44;;;5.07;99.48
40940;BME280;26666;50.156;7.700;2023-04-03T05:44:44;101631.91;;;5.85;93.83
40940;BME280;26666;50.156;7.700;2023-04-03T05:49:47;101636.50;;;8.90;76.59
40940;BME280;26666;50.156;7.700;2023-04-03T05:54:48;101639.91;;;11.04;67.43
40940;BME280;26666;50.156;7.700;2023-04-03T05:59:50;101645.06;;;12.93;58.89
40940;BME280;26666;50.156;7.700;2023-04-03T06:04:56;101644.75;;;14.12;51.96
40940;BME280;26666;50.156;7.700;2023-04-03T06:09:58;101651.28;;;14.74;49.27
40940;BME280;26666;50.156;7.700;2023-04-03T06:15:00;101659.97;;;15.09;48.51
40940;BME280;26666;50.156;7.700;2023-04-03T06:20:04;101653.00;;;15.81;46.20
40940;BME280;26666;50.156;7.700;2023-04-03T06:25:07;101675.75;;;16.25;43.41
40940;BME280;26666;50.156;7.700;2023-04-03T06:30:09;101678.75;;;16.61;43.48
40940;BME280;26666;50.156;7.700;2023-04-03T06:35:12;101677.50;;;13.56;49.40
40940;BME280;26666;50.156;7.700;2023-04-03T06:40:18;101676.53;;;14.14;48.67
40940;BME280;26666;50.156;7.700;2023-04-03T06:45:20;101691.72;;;15.01;46.03
40940;BME280;26666;50.156;7.700;2023-04-03T06:50:24;101698.69;;;16.57;40.83
40940;BME280;26666;50.156;7.700;2023-04-03T06:55:25;101709.75;;;17.99;39.59
40940;BME280;26666;50.156;7.700;2023-04-03T07:00:27;101703.75;;;18.42;38.49
40940;BME280;26666;50.156;7.700;2023-04-03T07:05:30;101703.84;;;18.23;38.06
40940;BME280;26666;50.156;7.700;2023-04-03T07:10:32;101704.56;;;14.18;42.16
40940;BME280;26666;50.156;7.700;2023-04-03T07:15:43;101715.31;;;16.70;41.90
40940;BME280;26666;50.156;7.700;2023-04-03T07:20:46;101713.97;;;12.21;47.13
40940;BME280;26666;50.156;7.700;2023-04-03T07:25:49;101715.31;;;17.48;39.61
40940;BME280;26666;50.156;7.700;2023-04-03T07:30:53;101713.38;;;17.21;39.65
40940;BME280;26666;50.156;7.700;2023-04-03T07:35:56;101724.56;;;15.43;42.86
40940;BME280;26666;50.156;7.700;2023-04-03T07:40:58;101722.84;;;13.18;44.54
40940;BME280;26666;50.156;7.700;2023-04-03T07:46:00;101721.25;;;13.39;46.05
40940;BME280;26666;50.156;7.700;2023-04-03T07:51:04;101733.47;;;12.70;48.64
40940;BME280;26666;50.156;7.700;2023-04-03T07:56:06;101721.88;;;11.04;49.79
40940;BME280;26666;50.156;7.700;2023-04-03T08:01:07;101721.94;;;9.32;54.86
40940;BME280;26666;50.156;7.700;2023-04-03T08:06:10;101737.91;;;10.03;53.11
40940;BME280;26666;50.156;7.700;2023-04-03T08:11:17;101735.66;;;10.82;51.15
40940;BME280;26666;50.156;7.700;2023-04-03T08:16:20;101740.66;;;10.31;52.35
40940;BME280;26666;50.156;7.700;2023-04-03T08:21:25;101738.44;;;9.80;51.71
40940;BME280;26666;50.156;7.700;2023-04-03T08:26:27;101734.13;;;9.93;53.10
40940;BME280;26666;50.156;7.700;2023-04-03T08:31:28;101728.47;;;9.85;53.41
40940;BME280;26666;50.156;7.700;2023-04-03T08:36:32;101731.03;;;10.01;54.06
40940;BME280;26666;50.156;7.700;2023-04-03T08:41:35;101743.13;;;10.34;53.57
40940;BME280;26666;50.156;7.700;2023-04-03T08:46:48;101745.03;;;9.73;57.34
40940;BME280;26666;50.156;7.700;2023-04-03T08:51:56;101730.41;;;10.68;53.34
40940;BME280;26666;50.156;7.700;2023-04-03T08:57:02;101734.06;;;10.38;54.75
40940;BME280;26666;50.156;7.700;2023-04-03T09:02:21;101746.13;;;10.27;54.84
40940;BME280;26666;50.156;7.700;2023-04-03T09:07:33;101743.19;;;10.18;54.01
40940;BME280;26666;50.156;7.700;2023-04-03T09:12:38;101747.56;;;10.33;53.81
40940;BME280;26666;50.156;7.700;2023-04-03T09:17:50;101751.19;;;9.87;52.64
40940;BME280;26666;50.156;7.700;2023-04-03T09:22:57;101761.44;;;9.63;53.70
40940;BME280;26666;50.156;7.700;2023-04-03T09:27:59;101743.94;;;9.91;56.13
40940;BME280;26666;50.156;7.700;2023-04-03T09:33:01;101738.97;;;9.26;54.62
40940;BME280;26666;50.156;7.700;2023-04-03T09:38:20;101738.28;;;9.53;52.25
40940;BME280;26666;50.156;7.700;2023-04-03T09:43:25;101744.13;;;8.81;54.65
40940;BME280;26666;50.156;7.700;2023-04-03T09:48:27;101736.16;;;8.67;55.63
40940;BME280;26666;50.156;7.700;2023-04-03T09:53:36;101742.34;;;8.50;55.68
40940;BME280;26666;50.156;7.700;2023-04-03T09:58:40;101732.47;;;9.32;53.46
40940;BME280;26666;50.156;7.700;2023-04-03T10:04:03;101744.66;;;8.72;53.74
40940;BME280;26666;50.156;7.700;2023-04-03T10:09:17;101737.34;;;8.77;52.68
40940;BME280;26666;50.156;7.700;2023-04-03T10:14:19;101737.06;;;9.44;53.99
40940;BME280;26666;50.156;7.700;2023-04-03T10:19:33;101746.22;;;9.53;53.38
40940;BME280;26666;50.156;7.700;2023-04-03T10:24:44;101724.28;;;9.06;53.35
40940;BME280;26666;50.156;7.700;2023-04-03T10:29:53;101733.75;;;9.85;52.19
40940;BME280;26666;50.156;7.700;2023-04-03T10:35:02;101714.50;;;10.12;49.16
40940;BME280;26666;50.156;7.700;2023-04-03T10:40:17;101720.16;;;10.05;53.31
40940;BME280;26666;50.156;7.700;2023-04-03T10:45:26;101709.59;;;9.91;52.35
40940;BME280;26666;50.156;7.700;2023-04-03T10:50:38;101711.34;;;9.47;52.06
40940;BME280;26666;50.156;7.700;2023-04-03T10:55:46;101701.41;;;9.96;51.03
40940;BME280;26666;50.156;7.700;2023-04-03T11:00:53;101702.31;;;9.80;50.52
40940;BME280;26666;50.156;7.700;2023-04-03T11:05:57;101705.44;;;10.01;51.80
40940;BME280;26666;50.156;7.700;2023-04-03T11:11:05;101688.16;;;9.38;49.30
40940;BME280;26666;50.156;7.700;2023-04-03T11:16:08;101696.97;;;9.67;51.61
40940;BME280;26666;50.156;7.700;2023-04-03T11:21:16;101681.53;;;9.45;52.57
40940;BME280;26666;50.156;7.700;2023-04-03T11:26:26;101690.34;;;9.60;50.46
40940;BME280;26666;50.156;7.700;2023-04-03T11:31:42;101681.56;;;9.01;51.39
40940;BME280;26666;50.156;7.700;2023-04-03T11:36:52;101679.19;;;9.41;51.11
40940;BME280;26666;50.156;7.700;2023-04-03T11:42:13;101663.03;;;10.04;49.86
40940;BME280;26666;50.156;7.700;2023-04-03T11:47:43;101661.69;;;9.97;52.83
40940;BME280;26666;50.156;7.700;2023-04-03T11:53:00;101666.31;;;9.51;48.93
40940;BME280;26666;50.156;7.700;2023-04-03T11:58:13;101652.44;;;9.33;49.13
40940;BME280;26666;50.156;7.700;2023-04-03T12:09:22;101656.16;;;9.73;49.01
40940;BME280;26666;50.156;7.700;2023-04-03T12:14:26;101655.38;;;9.12;49.11
40940;BME280;26666;50.156;7.700;2023-04-03T12:19:32;101646.94;;;9.21;48.41
40940;BME280;26666;50.156;7.700;2023-04-03T12:24:44;101633.97;;;9.33;47.78
40940;BME280;26666;50.156;7.700;2023-04-03T12:29:53;101631.53;;;9.44;46.38
40940;BME280;26666;50.156;7.700;2023-04-03T12:35:05;101644.72;;;8.99;46.33
40940;BME280;26666;50.156;7.700;2023-04-03T12:40:15;101626.19;;;9.01;45.25
40940;BME280;26666;50.156;7.700;2023-04-03T12:45:21;101612.81;;;8.58;45.15
40940;BME280;26666;50.156;7.700;2023-04-03T12:50:25;101608.78;;;8.82;46.74
40940;BME280;26666;50.156;7.700;2023-04-03T12:55:28;101618.06;;;8.90;45.41
40940;BME280;26666;50.156;7.700;2023-04-03T13:00:35;101627.34;;;8.65;47.15
40940;BME280;26666;50.156;7.700;2023-04-03T13:05:38;101615.66;;;9.15;45.53
40940;BME280;26666;50.156;7.700;2023-04-03T13:10:47;101608.63;;;9.30;46.51
40940;BME280;26666;50.156;7.700;2023-04-03T13:15:53;101602.25;;;9.04;44.25
40940;BME280;26666;50.156;7.700;2023-04-03T13:21:01;101605.03;;;8.86;43.99
40940;BME280;26666;50.156;7.700;2023-04-03T13:26:04;101600.91;;;8.97;45.48
40940;BME280;26666;50.156;7.700;2023-04-03T13:31:18;101595.22;;;9.19;45.67
40940;BME280;26666;50.156;7.700;2023-04-03T13:36:22;101595.44;;;8.85;45.51
40940;BME280;26666;50.156;7.700;2023-04-03T13:41:27;101600.41;;;9.20;44.78
40940;BME280;26666;50.156;7.700;2023-04-03T13:46:32;101581.16;;;8.90;46.30
40940;BME280;26666;50.156;7.700;2023-04-03T13:51:38;101583.88;;;9.02;45.76
40940;BME280;26666;50.156;7.700;2023-04-03T13:56:40;101582.69;;;9.08;45.06
40940;BME280;26666;50.156;7.700;2023-04-03T14:01:47;101577.31;;;9.10;48.28
40940;BME280;26666;50.156;7.700;2023-04-03T14:06:49;101588.63;;;8.35;43.91
40940;BME280;26666;50.156;7.700;2023-04-03T14:11:54;101579.56;;;8.71;44.28
40940;BME280;26666;50.156;7.700;2023-04-03T14:16:59;101568.59;;;8.79;45.14
40940;BME280;26666;50.156;7.700;2023-04-03T14:22:11;101566.69;;;9.11;48.90
40940;BME280;26666;50.156;7.700;2023-04-03T14:27:17;101566.78;;;8.79;44.97
40940;BME280;26666;50.156;7.700;2023-04-03T14:32:23;101551.84;;;8.49;44.76
40940;BME280;26666;50.156;7.700;2023-04-03T14:37:28;101555.34;;;8.95;46.43
40940;BME280;26666;50.156;7.700;2023-04-03T14:42:31;101540.38;;;8.51;43.00
40940;BME280;26666;50.156;7.700;2023-04-03T14:47:39;101542.75;;;8.69;44.45
40940;BME280;26666;50.156;7.700;2023-04-03T14:52:43;101551.47;;;8.56;43.86
40940;BME280;26666;50.156;7.700;2023-04-03T14:57:45;101545.25;;;8.87;44.35
40940;BME280;26666;50.156;7.700;2023-04-03T15:02:48;101546.94;;;8.74;42.52
40940;BME280;26666;50.156;7.700;2023-04-03T15:07:54;101532.88;;;8.59;42.97
40940;BME280;26666;50.156;7.700;2023-04-03T15:12:57;101540.34;;;8.35;44.73
40940;BME280;26666;50.156;7.700;2023-04-03T15:18:00;101542.06;;;8.52;45.05
40940;BME280;26666;50.156;7.700;2023-04-03T15:23:02;101537.84;;;8.63;45.82
40940;BME280;26666;50.156;7.700;2023-04-03T15:28:04;101548.38;;;8.33;45.27
40940;BME280;26666;50.156;7.700;2023-04-03T15:33:07;101534.44;;;8.47;45.50
40940;BME280;26666;50.156;7.700;2023-04-03T15:38:09;101532.94;;;8.57;44.73
40940;BME280;26666;50.156;7.700;2023-04-03T15:43:11;101525.59;;;8.32;44.42
40940;BME280;26666;50.156;7.700;2023-04-03T15:48:14;101543.00;;;8.51;44.26
40940;BME280;26666;50.156;7.700;2023-04-03T15:53:16;101539.50;;;8.66;46.36
40940;BME280;26666;50.156;7.700;2023-04-03T15:58:18;101530.59;;;8.53;45.61
40940;BME280;26666;50.156;7.700;2023-04-03T16:03:21;101543.09;;;8.33;46.48
40940;BME280;26666;50.156;7.700;2023-04-03T16:08:23;101552.28;;;8.26;44.51
40940;BME280;26666;50.156;7.700;2023-04-03T16:13:25;101545.22;;;8.42;47.28
40940;BME280;26666;50.156;7.700;2023-04-03T16:18:29;101539.94;;;8.42;46.65
40940;BME280;26666;50.156;7.700;2023-04-03T16:23:31;101544.78;;;8.50;45.22
40940;BME280;26666;50.156;7.700;2023-04-03T16:28:32;101539.34;;;8.37;45.69
40940;BME280;26666;50.156;7.700;2023-04-03T16:33:36;101545.56;;;8.20;46.32
40940;BME280;26666;50.156;7.700;2023-04-03T16:38:37;101535.28;;;8.32;45.46
40940;BME280;26666;50.156;7.700;2023-04-03T16:43:39;101537.06;;;8.47;46.66
40940;BME280;26666;50.156;7.700;2023-04-03T16:48:42;101533.75;;;8.27;45.36
40940;BME280;26666;50.156;7.700;2023-04-03T16:53:44;101530.59;;;8.37;44.80
40940;BME280;26666;50.156;7.700;2023-04-03T16:58:47;101530.19;;;8.44;46.30
40940;BME280;26666;50.156;7.700;2023-04-03T17:03:51;101537.41;;;8.25;45.68
40940;BME280;26666;50.156;7.700;2023-04-03T17:08:53;101534.09;;;8.05;45.32
40940;BME280;26666;50.156;7.700;2023-04-03T17:13:54;101544.03;;;8.32;45.91
40940;BME280;26666;50.156;7.700;2023-04-03T17:18:57;101556.63;;;7.95;46.25
40940;BME280;26666;50.156;7.700;2023-04-03T17:24:02;101564.63;;;8.09;46.06
40940;BME280;26666;50.156;7.700;2023-04-03T17:29:06;101550.44;;;7.96;45.62
40940;BME280;26666;50.156;7.700;2023-04-03T17:34:09;101546.50;;;8.03;46.72
40940;BME280;26666;50.156;7.700;2023-04-03T17:39:12;101556.53;;;7.81;46.52
40940;BME280;26666;50.156;7.700;2023-04-03T17:44:14;101557.22;;;8.00;50.42
40940;BME280;26666;50.156;7.700;2023-04-03T17:49:17;101566.81;;;7.85;47.41
40940;BME280;26666;50.156;7.700;2023-04-03T17:54:19;101558.91;;;7.85;47.41
40940;BME280;26666;50.156;7.700;2023-04-03T17:59:21;101557.78;;;7.74;52.41
40940;BME280;26666;50.156;7.700;2023-04-03T18:04:24;101568.03;;;7.46;47.85
40940;BME280;26666;50.156;7.700;2023-04-03T18:09:29;101574.53;;;7.39;48.05
40940;BME280;26666;50.156;7.700;2023-04-03T18:14:33;101572.59;;;7.92;50.53
40940;BME280;26666;50.156;7.700;2023-04-03T18:19:37;101581.34;;;7.43;51.22
40940;BME280;26666;50.156;7.700;2023-04-03T18:24:39;101577.91;;;7.08;50.45
40940;BME280;26666;50.156;7.700;2023-04-03T18:29:43;101585.31;;;7.17;52.40
40940;BME280;26666;50.156;7.700;2023-04-03T18:34:46;101588.41;;;7.25;52.94
40940;BME280;26666;50.156;7.700;2023-04-03T18:39:48;101589.69;;;6.83;51.20
40940;BME280;26666;50.156;7.700;2023-04-03T18:44:53;101592.81;;;6.72;54.42
40940;BME280;26666;50.156;7.700;2023-04-03T18:49:57;101598.78;;;7.11;52.23
40940;BME280;26666;50.156;7.700;2023-04-03T18:54:59;101603.50;;;6.87;53.64
40940;BME280;26666;50.156;7.700;2023-04-03T19:00:00;101601.81;;;6.49;55.67
40940;BME280;26666;50.156;7.700;2023-04-03T19:05:06;101598.91;;;6.19;55.09
40940;BME280;26666;50.156;7.700;2023-04-03T19:10:09;101610.41;;;5.77;58.62
40940;BME280;26666;50.156;7.700;2023-04-03T19:15:11;101614.22;;;5.51;58.74
40940;BME280;26666;50.156;7.700;2023-04-03T19:20:15;101616.41;;;5.60;59.39
40940;BME280;26666;50.156;7.700;2023-04-03T19:25:17;101629.16;;;5.49;60.52
40940;BME280;26666;50.156;7.700;2023-04-03T19:30:18;101623.06;;;5.07;62.26
40940;BME280;26666;50.156;7.700;2023-04-03T19:35:21;101619.81;;;5.02;64.82
40940;BME280;26666;50.156;7.700;2023-04-03T19:40:24;101631.50;;;4.73;63.59
40940;BME280;26666;50.156;7.700;2023-04-03T19:45:25;101629.53;;;4.78;64.02
40940;BME280;26666;50.156;7.700;2023-04-03T19:50:29;101627.91;;;4.53;65.26
40940;BME280;26666;50.156;7.700;2023-04-03T19:55:30;101632.41;;;4.50;66.48
40940;BME280;26666;50.156;7.700;2023-04-03T20:00:32;101636.91;;;4.24;67.11
40940;BME280;26666;50.156;7.700;2023-04-03T20:05:35;101638.16;;;4.14;67.48
40940;BME280;26666;50.156;7.700;2023-04-03T20:10:37;101631.00;;;3.95;67.27
40940;BME280;26666;50.156;7.700;2023-04-03T20:15:40;101639.09;;;3.89;68.41
40940;BME280;26666;50.156;7.700;2023-04-03T20:20:44;101637.03;;;3.74;70.30
40940;BME280;26666;50.156;7.700;2023-04-03T20:25:47;101632.41;;;3.81;69.69
40940;BME280;26666;50.156;7.700;2023-04-03T20:31:06;101642.53;;;3.66;69.70
40940;BME280;26666;50.156;7.700;2023-04-03T20:36:10;101637.06;;;3.49;71.21
40940;BME280;26666;50.156;7.700;2023-04-03T20:41:11;101634.03;;;3.60;70.23
40940;BME280;26666;50.156;7.700;2023-04-03T20:46:13;101644.22;;;3.67;71.59
40940;BME280;26666;50.156;7.700;2023-04-03T20:51:18;101636.34;;;3.44;71.83
40940;BME280;26666;50.156;7.700;2023-04-03T20:56:20;101632.91;;;3.43;70.17
40940;BME280;26666;50.156;7.700;2023-04-03T21:01:22;101645.25;;;3.38;71.42
40940;BME280;26666;50.156;7.700;2023-04-03T21:23:16;101636.16;;;3.73;70.77
40940;BME280;26666;50.156;7.700;2023-04-03T21:28:18;101635.41;;;3.95;69.52
40940;BME280;26666;50.156;7.700;2023-04-03T21:33:21;101638.88;;;4.18;69.67
40940;BME280;26666;50.156;7.700;2023-04-03T21:38:23;101634.25;;;3.79;70.47
40940;BME280;26666;50.156;7.700;2023-04-03T21:43:24;101632.28;;;3.85;68.40
40940;BME280;26666;50.156;7.700;2023-04-03T21:48:27;101635.22;;;4.00;67.11
40940;BME280;26666;50.156;7.700;2023-04-03T21:53:29;101633.25;;;3.81;67.86
40940;BME280;26666;50.156;7.700;2023-04-03T21:58:31;101641.97;;;3.58;69.29
40940;BME280;26666;50.156;7.700;2023-04-03T22:03:35;101640.91;;;3.87;67.90
40940;BME280;26666;50.156;7.700;2023-04-03T22:08:37;101643.56;;;3.62;68.80
40940;BME280;26666;50.156;7.700;2023-04-03T22:13:39;101637.78;;;3.78;68.33
40940;BME280;26666;50.156;7.700;2023-04-03T22:18:42;101643.09;;;3.51;68.65
40940;BME280;26666;50.156;7.700;2023-04-03T22:23:44;101640.56;;;3.23;69.58
40940;BME280;26666;50.156;7.700;2023-04-03T22:28:45;101638.34;;;3.62;68.06
40940;BME280;26666;50.156;7.700;2023-04-03T22:33:49;101642.59;;;3.40;71.07
40940;BME280;26666;50.156;7.700;2023-04-03T22:38:50;101641.53;;;3.20;69.51
40940;BME280;26666;50.156;7.700;2023-04-03T22:43:52;101645.25;;;3.13;69.28
40940;BME280;26666;50.156;7.700;2023-04-03T22:48:55;101650.63;;;3.08;69.18
40940;BME280;26666;50.156;7.700;2023-04-03T22:53:57;101655.38;;;3.22;69.97
40940;BME280;26666;50.156;7.700;2023-04-03T22:58:59;101657.72;;;3.80;69.78
40940;BME280;26666;50.156;7.700;2023-04-03T23:04:02;101659.34;;;3.59;68.95
40940;BME280;26666;50.156;7.700;2023-04-03T23:09:04;101653.88;;;3.15;70.34
40940;BME280;26666;50.156;7.700;2023-04-03T23:14:05;101663.13;;;3.25;69.18
40940;BME280;26666;50.156;7.700;2023-04-03T23:19:08;101654.16;;;2.81;71.18
40940;BME280;26666;50.156;7.700;2023-04-03T23:24:10;101649.63;;;3.38;69.28
40940;BME280;26666;50.156;7.700;2023-04-03T23:29:12;101655.69;;;3.13;69.91
40940;BME280;26666;50.156;7.700;2023-04-03T23:34:15;101649.88;;;3.05;69.19
40940;BME280;26666;50.156;7.700;2023-04-03T23:39:16;101649.31;;;2.68;69.46
40940;BME280;26666;50.156;7.700;2023-04-03T23:44:18;101649.03;;;2.78;71.27
40940;BME280;26666;50.156;7.700;2023-04-03T23:49:21;101653.59;;;2.97;68.98
40940;BME280;26666;50.156;7.700;2023-04-03T23:54:23;101643.06;;;3.01;68.38
40940;BME280;26666;50.156;7.700;2023-04-03T23:59:24;101641.34;;;2.73;71.21
